TimeCST,TemperatureF,Dew PointF,Humidity,Sea Level PressureIn,VisibilityMPH,Wind Direction,Wind SpeedMPH,Gust SpeedMPH,PrecipitationIn,Events,Conditions,WindDirDegrees,DateUTC
12:54 AM,50.0,37.0,61,29.98,10.0,SSE,10.4,17.3,N/A,,Overcast,160,2013-03-09 06:54:00
1:54 AM,48.9,37.9,66,29.97,9.0,South,6.9,18.4,0.00,Rain,Light Rain,170,2013-03-09 07:54:00
2:54 AM,48.9,39.0,69,29.94,8.0,South,9.2,-,0.00,,Overcast,170,2013-03-09 08:54:00
3:54 AM,48.0,39.0,71,29.91,8.0,SSE,4.6,-,N/A,,Overcast,150,2013-03-09 09:54:00
4:54 AM,46.9,39.0,74,29.88,8.0,SE,5.8,-,N/A,,Mostly Cloudy,130,2013-03-09 10:54:00
5:54 AM,48.0,39.0,71,29.88,8.0,SE,5.8,-,N/A,,Mostly Cloudy,140,2013-03-09 11:54:00
6:54 AM,48.0,39.0,71,29.86,8.0,Variable,4.6,-,0.00,Rain,Light Rain,0,2013-03-09 12:54:00
7:54 AM,48.0,39.0,71,29.84,8.0,SSE,5.8,-,0.00,,Mostly Cloudy,150,2013-03-09 13:54:00
8:54 AM,51.1,39.0,63,29.82,9.0,Variable,4.6,-,N/A,,Mostly Cloudy,0,2013-03-09 14:54:00
9:54 AM,53.1,39.9,61,29.82,10.0,South,5.8,-,N/A,,Overcast,190,2013-03-09 15:54:00
10:54 AM,55.9,39.9,55,29.78,10.0,South,5.8,-,N/A,,Overcast,170,2013-03-09 16:54:00
11:54 AM,57.9,42.1,56,29.76,10.0,South,6.9,-,N/A,,Overcast,180,2013-03-09 17:54:00
12:54 PM,60.1,45.0,57,29.73,10.0,South,8.1,-,0.00,Rain,Light Rain,170,2013-03-09 18:54:00
1:54 PM,57.0,48.0,72,29.72,5.0,West,4.6,-,0.00,Rain,Light Rain,280,2013-03-09 19:54:00
2:05 PM,55.4,48.2,77,29.71,1.8,WNW,3.5,-,0.02,Rain,Heavy Rain,300,2013-03-09 20:05:00
2:19 PM,55.4,48.2,77,29.70,3.0,Calm,Calm,-,0.03,Rain,Light Rain,0,2013-03-09 20:19:00
2:44 PM,51.8,48.2,88,29.71,3.0,NNW,4.6,-,0.03,Rain-Thunderstorm,Light Rain,330,2013-03-09 20:44:00
2:51 PM,53.6,48.2,82,29.70,1.8,NE,4.6,-,0.03,Rain-Thunderstorm,Light Rain,50,2013-03-09 20:51:00
2:54 PM,52.0,48.9,89,29.70,2.0,ENE,4.6,-,0.03,Rain-Thunderstorm,Light Rain,60,2013-03-09 20:54:00
3:23 PM,53.6,50.0,88,29.69,3.0,East,5.8,-,0.01,Rain-Thunderstorm,Light Rain,100,2013-03-09 21:23:00
3:32 PM,53.6,50.0,88,29.68,4.0,East,5.8,-,0.01,,Overcast,100,2013-03-09 21:32:00
3:54 PM,53.1,51.1,93,29.68,4.0,Calm,Calm,-,0.01,Rain,Light Rain,0,2013-03-09 21:54:00
4:54 PM,53.1,51.1,93,29.66,3.0,NE,3.5,-,0.00,,Overcast,50,2013-03-09 22:54:00
5:02 PM,53.6,51.8,94,29.66,2.5,NE,4.6,-,N/A,,Overcast,40,2013-03-09 23:02:00
5:09 PM,53.6,50.0,88,29.67,3.0,NNE,3.5,-,0.00,Rain-Thunderstorm,Light Rain,30,2013-03-09 23:09:00
5:22 PM,53.6,50.0,88,29.68,3.0,NW,5.8,-,0.01,Rain-Thunderstorm,Thunderstorms and Rain,320,2013-03-09 23:22:00
5:33 PM,53.6,51.8,94,29.69,3.0,NW,4.6,-,0.02,Rain,Light Rain,320,2013-03-09 23:33:00
5:40 PM,53.6,51.8,94,29.69,1.8,NNE,3.5,-,0.06,Rain-Thunderstorm,Heavy Rain,30,2013-03-09 23:40:00
5:54 PM,53.6,51.8,94,29.68,1.2,ENE,4.6,-,N/A,Rain-Thunderstorm,Rain,70,2013-03-09 23:54:00
6:05 PM,53.6,51.8,94,29.68,2.5,ENE,5.8,-,0.00,Rain-Thunderstorm,Light Rain,70,2013-03-10 00:05:00
6:07 PM,53.6,51.8,94,29.68,2.5,ENE,6.9,-,0.00,Rain,Light Rain,70,2013-03-10 00:07:00
6:14 PM,53.6,50.0,88,29.67,3.0,East,5.8,-,0.00,,Overcast,80,2013-03-10 00:14:00
6:21 PM,51.8,50.0,94,29.67,3.0,East,8.1,-,0.00,,Overcast,80,2013-03-10 00:21:00
6:29 PM,51.8,50.0,94,29.67,2.5,East,8.1,-,0.00,Rain,Light Rain,90,2013-03-10 00:29:00
6:47 PM,51.8,50.0,94,29.67,3.0,East,6.9,-,0.00,Rain,Light Rain,90,2013-03-10 00:47:00
6:50 PM,51.8,48.2,88,29.67,2.5,East,6.9,-,0.00,Rain,Light Rain,90,2013-03-10 00:50:00
6:54 PM,51.1,48.9,92,29.67,2.0,East,8.1,-,0.01,Rain,Rain,80,2013-03-10 00:54:00
7:02 PM,51.8,48.2,88,29.65,1.8,East,11.5,-,0.01,Rain,Rain,80,2013-03-10 01:02:00
7:05 PM,51.8,48.2,88,29.64,2.0,East,11.5,-,0.01,Rain,Light Rain,80,2013-03-10 01:05:00
7:22 PM,50.0,48.2,94,29.66,3.0,East,9.2,-,0.01,Rain,Light Rain,90,2013-03-10 01:22:00
7:36 PM,50.0,48.2,94,29.68,3.0,East,5.8,-,0.02,Rain-Thunderstorm,Light Rain,100,2013-03-10 01:36:00
7:41 PM,50.0,48.2,94,29.68,1.8,East,5.8,-,0.06,Rain-Thunderstorm,Heavy Rain,80,2013-03-10 01:41:00
7:54 PM,50.0,48.0,93,29.68,1.8,East,5.8,-,0.10,Rain-Thunderstorm,Rain,90,2013-03-10 01:54:00
8:03 PM,50.0,48.2,94,29.65,1.8,East,10.4,-,0.02,Rain-Thunderstorm,Heavy Rain,80,2013-03-10 02:03:00
8:06 PM,50.0,48.2,94,29.65,2.0,East,10.4,-,0.02,Rain,Rain,80,2013-03-10 02:06:00
8:23 PM,50.0,48.2,94,29.66,3.0,East,10.4,-,0.02,Rain,Light Rain,100,2013-03-10 02:23:00
8:35 PM,50.0,48.2,94,29.65,2.5,ENE,6.9,-,0.02,Rain,Light Rain,60,2013-03-10 02:35:00
8:43 PM,50.0,48.2,94,29.65,2.5,East,6.9,-,0.02,Rain,Light Rain,80,2013-03-10 02:43:00
8:54 PM,50.0,48.0,93,29.65,2.0,East,6.9,-,0.03,Rain,Light Rain,80,2013-03-10 02:54:00
9:17 PM,50.0,48.2,94,29.66,3.0,East,4.6,-,0.00,Rain,Light Rain,80,2013-03-10 03:17:00
9:26 PM,50.0,48.2,94,29.66,2.5,East,3.5,-,0.01,Rain,Light Rain,100,2013-03-10 03:26:00
9:40 PM,50.0,48.2,94,29.64,3.0,East,5.8,-,0.01,Rain,Light Rain,80,2013-03-10 03:40:00
9:42 PM,50.0,48.2,94,29.64,2.5,East,6.9,-,0.01,Rain,Light Rain,80,2013-03-10 03:42:00
9:54 PM,51.1,48.9,92,29.62,2.5,East,6.9,-,0.01,Rain,Light Rain,100,2013-03-10 03:54:00
10:02 PM,53.6,51.8,94,29.62,4.0,ESE,10.4,-,0.00,,Overcast,120,2013-03-10 04:02:00
10:41 PM,53.6,51.8,94,29.61,6.0,SE,9.2,-,0.00,,Mostly Cloudy,140,2013-03-10 04:41:00
10:54 PM,55.9,53.1,90,29.61,6.0,South,3.5,-,0.00,,Mostly Cloudy,170,2013-03-10 04:54:00
11:30 PM,53.6,51.8,94,29.63,4.0,Calm,Calm,-,N/A,,Mostly Cloudy,0,2013-03-10 05:30:00
11:39 PM,51.8,50.0,94,29.61,2.5,North,4.6,-,N/A,,Mostly Cloudy,10,2013-03-10 05:39:00
11:50 PM,51.8,50.0,94,29.60,1.0,Calm,Calm,-,N/A,,Mist,0,2013-03-10 05:50:00
11:54 PM,51.1,48.9,92,29.60,0.8,ENE,3.5,-,N/A,,Mist,60,2013-03-10 05:54:00